sensor_id;sensor_type;location;lat;lon;timestamp;P1;durP1;ratioP1;P2;durP2;ratioP2
65533;SDS011;53640;55.838;37.184;2023-02-13T00:02:24;3.60;;;1.60;;
65533;SDS011;53640;55.838;37.184;2023-02-13T00:04:51;4.45;;;1.75;;
65533;SDS011;53640;55.838;37.184;2023-02-13T00:07:17;4.03;;;1.50;;
65533;SDS011;53640;55.838;37.184;2023-02-13T00:09:44;3.42;;;1.50;;
65533;SDS011;53640;55.838;37.184;2023-02-13T00:12:10;5.15;;;1.60;;
65533;SDS011;53640;55.838;37.184;2023-02-13T00:14:37;3.03;;;1.73;;
65533;SDS011;53640;55.838;37.184;2023-02-13T00:17:04;3.72;;;1.38;;
65533;SDS011;53640;55.838;37.184;2023-02-13T00:19:31;3.33;;;1.42;;
65533;SDS011;53640;55.838;37.184;2023-02-13T00:21:58;1.90;;;1.17;;
65533;SDS011;53640;55.838;37.184;2023-02-13T00:24:25;2.65;;;1.20;;
65533;SDS011;53640;55.838;37.184;2023-02-13T00:26:52;5.32;;;1.55;;
65533;SDS011;53640;55.838;37.184;2023-02-13T00:29:18;2.33;;;1.30;;
65533;SDS011;53640;55.838;37.184;2023-02-13T00:31:46;1.73;;;1.20;;
65533;SDS011;53640;55.838;37.184;2023-02-13T00:34:13;2.15;;;1.17;;
65533;SDS011;53640;55.838;37.184;2023-02-13T00:36:39;2.47;;;1.17;;
65533;SDS011;53640;55.838;37.184;2023-02-13T00:39:06;5.30;;;1.20;;
65533;SDS011;53640;55.838;37.184;2023-02-13T00:41:37;3.95;;;1.50;;
65533;SDS011;53640;55.838;37.184;2023-02-13T00:44:04;1.42;;;1.15;;
65533;SDS011;53640;55.838;37.184;2023-02-13T00:46:31;5.75;;;1.33;;
65533;SDS011;53640;55.838;37.184;2023-02-13T00:48:58;1.17;;;0.95;;
65533;SDS011;53640;55.838;37.184;2023-02-13T00:51:24;2.33;;;1.10;;
65533;SDS011;53640;55.838;37.184;2023-02-13T00:53:50;2.05;;;1.13;;
65533;SDS011;53640;55.838;37.184;2023-02-13T00:56:17;1.63;;;1.10;;
65533;SDS011;53640;55.838;37.184;2023-02-13T00:58:44;2.67;;;1.30;;
65533;SDS011;53640;55.838;37.184;2023-02-13T01:01:10;2.92;;;1.38;;
65533;SDS011;53640;55.838;37.184;2023-02-13T01:03:37;1.05;;;1.00;;
65533;SDS011;53640;55.838;37.184;2023-02-13T01:06:03;4.28;;;1.48;;
65533;SDS011;53640;55.838;37.184;2023-02-13T01:08:30;2.92;;;1.40;;
65533;SDS011;53640;55.838;37.184;2023-02-13T01:10:57;3.45;;;1.10;;
65533;SDS011;53640;55.838;37.184;2023-02-13T01:13:24;2.17;;;1.10;;
65533;SDS011;53640;55.838;37.184;2023-02-13T01:15:53;3.03;;;1.42;;
65533;SDS011;53640;55.838;37.184;2023-02-13T01:18:20;1.85;;;1.35;;
65533;SDS011;53640;55.838;37.184;2023-02-13T01:21:00;3.30;;;1.27;;
65533;SDS011;53640;55.838;37.184;2023-02-13T01:23:32;1.00;;;1.00;;
65533;SDS011;53640;55.838;37.184;2023-02-13T01:26:02;3.42;;;1.45;;
65533;SDS011;53640;55.838;37.184;2023-02-13T01:28:29;2.53;;;1.13;;
65533;SDS011;53640;55.838;37.184;2023-02-13T01:30:56;3.63;;;1.45;;
65533;SDS011;53640;55.838;37.184;2023-02-13T01:33:24;2.67;;;1.20;;
65533;SDS011;53640;55.838;37.184;2023-02-13T01:35:52;4.43;;;1.60;;
65533;SDS011;53640;55.838;37.184;2023-02-13T01:38:18;2.53;;;1.30;;
65533;SDS011;53640;55.838;37.184;2023-02-13T01:43:19;3.67;;;1.52;;
65533;SDS011;53640;55.838;37.184;2023-02-13T01:45:48;3.35;;;1.73;;
65533;SDS011;53640;55.838;37.184;2023-02-13T01:48:18;3.70;;;1.50;;
65533;SDS011;53640;55.838;37.184;2023-02-13T01:50:51;2.70;;;1.48;;
65533;SDS011;53640;55.838;37.184;2023-02-13T01:56:27;1.60;;;1.38;;
65533;SDS011;53640;55.838;37.184;2023-02-13T01:59:10;1.98;;;1.40;;
65533;SDS011;53640;55.838;37.184;2023-02-13T02:01:41;3.17;;;1.80;;
65533;SDS011;53640;55.838;37.184;2023-02-13T02:04:15;2.75;;;1.48;;
65533;SDS011;53640;55.838;37.184;2023-02-13T02:06:49;4.97;;;1.60;;
65533;SDS011;53640;55.838;37.184;2023-02-13T02:09:26;2.33;;;1.25;;
65533;SDS011;53640;55.838;37.184;2023-02-13T02:11:58;8.30;;;1.70;;
65533;SDS011;53640;55.838;37.184;2023-02-13T02:14:29;4.85;;;1.70;;
65533;SDS011;53640;55.838;37.184;2023-02-13T02:16:56;3.17;;;1.40;;
65533;SDS011;53640;55.838;37.184;2023-02-13T02:34:26;5.25;;;1.70;;
65533;SDS011;53640;55.838;37.184;2023-02-13T02:39:56;4.70;;;1.75;;
65533;SDS011;53640;55.838;37.184;2023-02-13T02:45:39;8.15;;;2.53;;
65533;SDS011;53640;55.838;37.184;2023-02-13T02:48:32;10.13;;;2.70;;
65533;SDS011;53640;55.838;37.184;2023-02-13T02:54:34;10.55;;;2.42;;
65533;SDS011;53640;55.838;37.184;2023-02-13T02:57:30;8.10;;;2.25;;
65533;SDS011;53640;55.838;37.184;2023-02-13T03:00:19;6.40;;;2.55;;
65533;SDS011;53640;55.838;37.184;2023-02-13T03:03:11;7.22;;;2.28;;
65533;SDS011;53640;55.838;37.184;2023-02-13T03:06:52;5.45;;;2.08;;
65533;SDS011;53640;55.838;37.184;2023-02-13T03:09:04;7.93;;;2.00;;
65533;SDS011;53640;55.838;37.184;2023-02-13T03:11:54;4.22;;;1.55;;
65533;SDS011;53640;55.838;37.184;2023-02-13T03:14:40;3.20;;;1.48;;
65533;SDS011;53640;55.838;37.184;2023-02-13T03:17:09;4.13;;;1.30;;
65533;SDS011;53640;55.838;37.184;2023-02-13T03:20:00;4.82;;;1.40;;
65533;SDS011;53640;55.838;37.184;2023-02-13T03:22:58;1.40;;;1.20;;
65533;SDS011;53640;55.838;37.184;2023-02-13T03:32:17;4.45;;;1.42;;
65533;SDS011;53640;55.838;37.184;2023-02-13T03:34:54;4.22;;;1.50;;
65533;SDS011;53640;55.838;37.184;2023-02-13T03:38:02;2.03;;;1.13;;
65533;SDS011;53640;55.838;37.184;2023-02-13T03:40:41;4.65;;;1.65;;
65533;SDS011;53640;55.838;37.184;2023-02-13T03:43:32;4.93;;;1.95;;
65533;SDS011;53640;55.838;37.184;2023-02-13T03:46:08;5.88;;;2.45;;
65533;SDS011;53640;55.838;37.184;2023-02-13T03:48:37;4.97;;;2.20;;
65533;SDS011;53640;55.838;37.184;2023-02-13T03:51:27;4.72;;;2.00;;
65533;SDS011;53640;55.838;37.184;2023-02-13T03:53:56;3.15;;;2.17;;
65533;SDS011;53640;55.838;37.184;2023-02-13T03:56:29;5.43;;;1.95;;
65533;SDS011;53640;55.838;37.184;2023-02-13T03:59:21;4.45;;;1.70;;
65533;SDS011;53640;55.838;37.184;2023-02-13T04:02:02;6.30;;;1.95;;
65533;SDS011;53640;55.838;37.184;2023-02-13T04:07:28;6.75;;;1.90;;
65533;SDS011;53640;55.838;37.184;2023-02-13T04:09:57;4.97;;;2.03;;
65533;SDS011;53640;55.838;37.184;2023-02-13T04:18:24;5.13;;;1.92;;
65533;SDS011;53640;55.838;37.184;2023-02-13T04:20:53;5.43;;;1.35;;
65533;SDS011;53640;55.838;37.184;2023-02-13T04:23:20;4.57;;;1.77;;
65533;SDS011;53640;55.838;37.184;2023-02-13T04:25:48;5.30;;;1.65;;
65533;SDS011;53640;55.838;37.184;2023-02-13T04:28:16;4.82;;;1.80;;
65533;SDS011;53640;55.838;37.184;2023-02-13T04:30:43;2.22;;;1.30;;
65533;SDS011;53640;55.838;37.184;2023-02-13T04:33:09;2.15;;;1.35;;
65533;SDS011;53640;55.838;37.184;2023-02-13T04:35:35;3.28;;;1.30;;
65533;SDS011;53640;55.838;37.184;2023-02-13T04:38:02;2.78;;;1.45;;
65533;SDS011;53640;55.838;37.184;2023-02-13T04:40:29;7.50;;;1.60;;
65533;SDS011;53640;55.838;37.184;2023-02-13T04:42:56;4.15;;;1.52;;
65533;SDS011;53640;55.838;37.184;2023-02-13T04:45:22;3.55;;;1.60;;
65533;SDS011;53640;55.838;37.184;2023-02-13T04:47:49;5.50;;;1.60;;
65533;SDS011;53640;55.838;37.184;2023-02-13T04:50:17;4.65;;;1.58;;
65533;SDS011;53640;55.838;37.184;2023-02-13T04:52:43;3.13;;;1.40;;
65533;SDS011;53640;55.838;37.184;2023-02-13T04:55:10;2.30;;;1.40;;
65533;SDS011;53640;55.838;37.184;2023-02-13T04:57:38;3.05;;;1.45;;
65533;SDS011;53640;55.838;37.184;2023-02-13T05:00:06;2.92;;;1.20;;
65533;SDS011;53640;55.838;37.184;2023-02-13T05:02:32;2.38;;;1.92;;
65533;SDS011;53640;55.838;37.184;2023-02-13T05:04:59;5.05;;;1.35;;
65533;SDS011;53640;55.838;37.184;2023-02-13T05:07:26;4.00;;;1.38;;
65533;SDS011;53640;55.838;37.184;2023-02-13T05:09:52;3.42;;;1.42;;
65533;SDS011;53640;55.838;37.184;2023-02-13T05:12:19;1.70;;;1.10;;
65533;SDS011;53640;55.838;37.184;2023-02-13T05:14:45;3.88;;;1.33;;
65533;SDS011;53640;55.838;37.184;2023-02-13T05:17:11;4.68;;;1.73;;
65533;SDS011;53640;55.838;37.184;2023-02-13T05:19:38;1.67;;;1.05;;
65533;SDS011;53640;55.838;37.184;2023-02-13T05:22:04;7.40;;;1.70;;
65533;SDS011;53640;55.838;37.184;2023-02-13T05:24:49;1.92;;;1.08;;
65533;SDS011;53640;55.838;37.184;2023-02-13T05:27:17;2.83;;;1.08;;
65533;SDS011;53640;55.838;37.184;2023-02-13T05:29:43;3.47;;;1.30;;
65533;SDS011;53640;55.838;37.184;2023-02-13T05:32:09;1.50;;;1.20;;
65533;SDS011;53640;55.838;37.184;2023-02-13T05:34:35;3.92;;;1.23;;
65533;SDS011;53640;55.838;37.184;2023-02-13T05:37:02;2.20;;;1.20;;
65533;SDS011;53640;55.838;37.184;2023-02-13T05:39:28;2.70;;;1.42;;
65533;SDS011;53640;55.838;37.184;2023-02-13T05:41:55;1.77;;;1.00;;
65533;SDS011;53640;55.838;37.184;2023-02-13T05:44:21;2.08;;;1.20;;
65533;SDS011;53640;55.838;37.184;2023-02-13T05:46:48;2.55;;;1.27;;
65533;SDS011;53640;55.838;37.184;2023-02-13T05:49:14;2.17;;;1.20;;
65533;SDS011;53640;55.838;37.184;2023-02-13T05:51:41;2.85;;;1.35;;
65533;SDS011;53640;55.838;37.184;2023-02-13T05:54:07;3.70;;;1.20;;
65533;SDS011;53640;55.838;37.184;2023-02-13T05:56:34;2.83;;;1.40;;
65533;SDS011;53640;55.838;37.184;2023-02-13T05:59:00;3.70;;;1.73;;
65533;SDS011;53640;55.838;37.184;2023-02-13T06:01:28;4.85;;;1.80;;
65533;SDS011;53640;55.838;37.184;2023-02-13T06:03:55;3.85;;;1.70;;
65533;SDS011;53640;55.838;37.184;2023-02-13T06:06:22;3.47;;;1.63;;
65533;SDS011;53640;55.838;37.184;2023-02-13T06:08:49;6.38;;;1.65;;
65533;SDS011;53640;55.838;37.184;2023-02-13T06:11:21;5.15;;;1.88;;
65533;SDS011;53640;55.838;37.184;2023-02-13T06:13:49;2.80;;;1.55;;
65533;SDS011;53640;55.838;37.184;2023-02-13T06:16:16;4.32;;;1.88;;
65533;SDS011;53640;55.838;37.184;2023-02-13T06:18:42;5.70;;;2.42;;
65533;SDS011;53640;55.838;37.184;2023-02-13T06:21:09;3.75;;;2.35;;
65533;SDS011;53640;55.838;37.184;2023-02-13T06:23:35;4.97;;;2.20;;
65533;SDS011;53640;55.838;37.184;2023-02-13T06:26:05;3.08;;;2.13;;
65533;SDS011;53640;55.838;37.184;2023-02-13T06:28:34;4.18;;;2.50;;
65533;SDS011;53640;55.838;37.184;2023-02-13T06:31:01;2.83;;;1.58;;
65533;SDS011;53640;55.838;37.184;2023-02-13T06:33:30;3.90;;;1.83;;
65533;SDS011;53640;55.838;37.184;2023-02-13T06:35:56;4.25;;;1.95;;
65533;SDS011;53640;55.838;37.184;2023-02-13T06:38:23;4.93;;;1.95;;
65533;SDS011;53640;55.838;37.184;2023-02-13T06:40:57;4.20;;;1.48;;
65533;SDS011;53640;55.838;37.184;2023-02-13T06:43:42;3.40;;;1.80;;
65533;SDS011;53640;55.838;37.184;2023-02-13T06:46:40;2.72;;;1.63;;
65533;SDS011;53640;55.838;37.184;2023-02-13T06:49:29;3.97;;;1.73;;
65533;SDS011;53640;55.838;37.184;2023-02-13T06:52:16;1.70;;;1.60;;
65533;SDS011;53640;55.838;37.184;2023-02-13T06:54:55;3.22;;;1.60;;
65533;SDS011;53640;55.838;37.184;2023-02-13T06:57:49;3.25;;;1.80;;
65533;SDS011;53640;55.838;37.184;2023-02-13T07:00:29;5.10;;;1.33;;
65533;SDS011;53640;55.838;37.184;2023-02-13T07:03:03;3.20;;;1.52;;
65533;SDS011;53640;55.838;37.184;2023-02-13T07:05:58;3.67;;;1.75;;
65533;SDS011;53640;55.838;37.184;2023-02-13T07:08:44;2.13;;;1.40;;
65533;SDS011;53640;55.838;37.184;2023-02-13T07:11:50;2.75;;;1.50;;
65533;SDS011;53640;55.838;37.184;2023-02-13T07:14:32;3.83;;;1.77;;
65533;SDS011;53640;55.838;37.184;2023-02-13T07:17:26;3.15;;;1.65;;
65533;SDS011;53640;55.838;37.184;2023-02-13T07:22:40;3.38;;;1.48;;
65533;SDS011;53640;55.838;37.184;2023-02-13T07:25:08;3.22;;;1.80;;
65533;SDS011;53640;55.838;37.184;2023-02-13T07:27:35;3.95;;;1.40;;
65533;SDS011;53640;55.838;37.184;2023-02-13T07:30:11;3.40;;;2.00;;
65533;SDS011;53640;55.838;37.184;2023-02-13T07:32:39;4.13;;;1.77;;
65533;SDS011;53640;55.838;37.184;2023-02-13T07:35:06;4.72;;;1.90;;
65533;SDS011;53640;55.838;37.184;2023-02-13T07:37:33;2.17;;;1.33;;
65533;SDS011;53640;55.838;37.184;2023-02-13T07:40:02;4.03;;;2.00;;
65533;SDS011;53640;55.838;37.184;2023-02-13T07:42:38;5.65;;;2.13;;
65533;SDS011;53640;55.838;37.184;2023-02-13T07:45:08;3.72;;;2.10;;
65533;SDS011;53640;55.838;37.184;2023-02-13T07:47:44;5.85;;;1.90;;
65533;SDS011;53640;55.838;37.184;2023-02-13T07:50:12;4.20;;;1.85;;
65533;SDS011;53640;55.838;37.184;2023-02-13T07:53:08;5.15;;;2.20;;
65533;SDS011;53640;55.838;37.184;2023-02-13T07:55:36;4.78;;;1.63;;
65533;SDS011;53640;55.838;37.184;2023-02-13T07:58:03;3.25;;;2.25;;
65533;SDS011;53640;55.838;37.184;2023-02-13T08:00:30;5.65;;;2.13;;
65533;SDS011;53640;55.838;37.184;2023-02-13T08:03:00;3.58;;;2.20;;
65533;SDS011;53640;55.838;37.184;2023-02-13T08:05:27;5.93;;;2.15;;
65533;SDS011;53640;55.838;37.184;2023-02-13T08:07:57;5.88;;;2.20;;
65533;SDS011;53640;55.838;37.184;2023-02-13T08:10:25;5.78;;;2.47;;
65533;SDS011;53640;55.838;37.184;2023-02-13T08:13:13;5.30;;;1.90;;
65533;SDS011;53640;55.838;37.184;2023-02-13T08:15:44;7.68;;;2.47;;
65533;SDS011;53640;55.838;37.184;2023-02-13T08:18:14;6.05;;;2.30;;
65533;SDS011;53640;55.838;37.184;2023-02-13T08:20:42;5.13;;;2.92;;
65533;SDS011;53640;55.838;37.184;2023-02-13T08:23:11;5.40;;;2.58;;
65533;SDS011;53640;55.838;37.184;2023-02-13T08:25:41;9.82;;;3.28;;
65533;SDS011;53640;55.838;37.184;2023-02-13T08:28:10;9.07;;;2.85;;
65533;SDS011;53640;55.838;37.184;2023-02-13T08:30:56;6.97;;;2.90;;
65533;SDS011;53640;55.838;37.184;2023-02-13T08:33:23;8.65;;;3.03;;
65533;SDS011;53640;55.838;37.184;2023-02-13T08:35:54;8.07;;;3.13;;
65533;SDS011;53640;55.838;37.184;2023-02-13T08:38:30;6.97;;;3.08;;
65533;SDS011;53640;55.838;37.184;2023-02-13T08:41:14;7.47;;;3.08;;
65533;SDS011;53640;55.838;37.184;2023-02-13T08:43:44;7.15;;;3.08;;
65533;SDS011;53640;55.838;37.184;2023-02-13T08:46:21;8.93;;;3.65;;
65533;SDS011;53640;55.838;37.184;2023-02-13T08:49:03;10.10;;;3.88;;
65533;SDS011;53640;55.838;37.184;2023-02-13T08:51:33;11.63;;;4.75;;
65533;SDS011;53640;55.838;37.184;2023-02-13T08:54:03;10.80;;;3.95;;
65533;SDS011;53640;55.838;37.184;2023-02-13T08:56:29;7.70;;;4.28;;
65533;SDS011;53640;55.838;37.184;2023-02-13T08:58:57;10.68;;;4.10;;
65533;SDS011;53640;55.838;37.184;2023-02-13T09:01:24;7.47;;;4.05;;
65533;SDS011;53640;55.838;37.184;2023-02-13T09:03:57;9.05;;;3.05;;
65533;SDS011;53640;55.838;37.184;2023-02-13T09:06:23;5.05;;;2.60;;
65533;SDS011;53640;55.838;37.184;2023-02-13T09:08:51;4.35;;;2.50;;
65533;SDS011;53640;55.838;37.184;2023-02-13T09:11:18;3.90;;;2.10;;
65533;SDS011;53640;55.838;37.184;2023-02-13T09:13:48;3.90;;;2.03;;
65533;SDS011;53640;55.838;37.184;2023-02-13T09:16:18;5.93;;;2.20;;
65533;SDS011;53640;55.838;37.184;2023-02-13T09:18:46;3.00;;;2.00;;
65533;SDS011;53640;55.838;37.184;2023-02-13T09:21:14;3.95;;;2.15;;
65533;SDS011;53640;55.838;37.184;2023-02-13T09:23:43;2.10;;;1.45;;
65533;SDS011;53640;55.838;37.184;2023-02-13T09:26:10;4.70;;;1.70;;
65533;SDS011;53640;55.838;37.184;2023-02-13T09:28:38;2.63;;;1.55;;
65533;SDS011;53640;55.838;37.184;2023-02-13T09:31:12;3.70;;;1.75;;
65533;SDS011;53640;55.838;37.184;2023-02-13T09:33:42;4.78;;;2.40;;
65533;SDS011;53640;55.838;37.184;2023-02-13T09:36:10;2.92;;;1.63;;
65533;SDS011;53640;55.838;37.184;2023-02-13T09:38:40;3.08;;;1.90;;
65533;SDS011;53640;55.838;37.184;2023-02-13T09:41:10;2.72;;;2.05;;
65533;SDS011;53640;55.838;37.184;2023-02-13T09:46:27;4.43;;;2.20;;
65533;SDS011;53640;55.838;37.184;2023-02-13T09:48:58;2.38;;;1.80;;
65533;SDS011;53640;55.838;37.184;2023-02-13T09:51:30;3.25;;;1.95;;
65533;SDS011;53640;55.838;37.184;2023-02-13T09:54:06;4.30;;;2.20;;
65533;SDS011;53640;55.838;37.184;2023-02-13T09:59:41;3.00;;;2.03;;
65533;SDS011;53640;55.838;37.184;2023-02-13T10:02:22;3.22;;;1.90;;
65533;SDS011;53640;55.838;37.184;2023-02-13T10:05:19;2.65;;;1.80;;
65533;SDS011;53640;55.838;37.184;2023-02-13T10:18:36;1.45;;;1.20;;
65533;SDS011;53640;55.838;37.184;2023-02-13T10:21:30;3.42;;;1.35;;
65533;SDS011;53640;55.838;37.184;2023-02-13T10:24:05;3.72;;;1.58;;
65533;SDS011;53640;55.838;37.184;2023-02-13T10:26:38;3.53;;;1.70;;
65533;SDS011;53640;55.838;37.184;2023-02-13T10:31:55;3.08;;;1.67;;
65533;SDS011;53640;55.838;37.184;2023-02-13T10:34:27;3.97;;;2.05;;
65533;SDS011;53640;55.838;37.184;2023-02-13T10:37:01;4.10;;;1.60;;
65533;SDS011;53640;55.838;37.184;2023-02-13T10:42:07;2.17;;;1.58;;
65533;SDS011;53640;55.838;37.184;2023-02-13T10:44:50;3.88;;;1.55;;
65533;SDS011;53640;55.838;37.184;2023-02-13T10:50:55;2.92;;;1.60;;
65533;SDS011;53640;55.838;37.184;2023-02-13T10:53:57;3.10;;;1.40;;
65533;SDS011;53640;55.838;37.184;2023-02-13T10:56:39;3.75;;;1.63;;
65533;SDS011;53640;55.838;37.184;2023-02-13T10:59:21;2.45;;;1.50;;
65533;SDS011;53640;55.838;37.184;2023-02-13T11:02:02;2.47;;;1.45;;
65533;SDS011;53640;55.838;37.184;2023-02-13T11:04:58;3.80;;;2.00;;
65533;SDS011;53640;55.838;37.184;2023-02-13T11:07:32;3.60;;;2.10;;
65533;SDS011;53640;55.838;37.184;2023-02-13T11:10:02;5.47;;;2.70;;
65533;SDS011;53640;55.838;37.184;2023-02-13T11:12:42;4.63;;;2.00;;
65533;SDS011;53640;55.838;37.184;2023-02-13T11:15:31;5.93;;;2.30;;
65533;SDS011;53640;55.838;37.184;2023-02-13T11:17:59;4.20;;;1.70;;
65533;SDS011;53640;55.838;37.184;2023-02-13T11:20:43;4.78;;;1.88;;
65533;SDS011;53640;55.838;37.184;2023-02-13T11:25:52;4.75;;;1.63;;
65533;SDS011;53640;55.838;37.184;2023-02-13T11:28:23;4.35;;;1.45;;
65533;SDS011;53640;55.838;37.184;2023-02-13T11:30:53;2.63;;;1.38;;
65533;SDS011;53640;55.838;37.184;2023-02-13T11:33:36;1.65;;;1.27;;
65533;SDS011;53640;55.838;37.184;2023-02-13T11:36:04;4.20;;;1.13;;
65533;SDS011;53640;55.838;37.184;2023-02-13T11:38:32;5.57;;;1.50;;
65533;SDS011;53640;55.838;37.184;2023-02-13T11:48:39;2.15;;;1.30;;
65533;SDS011;53640;55.838;37.184;2023-02-13T11:51:07;2.95;;;1.33;;
65533;SDS011;53640;55.838;37.184;2023-02-13T11:53:37;1.60;;;1.17;;
65533;SDS011;53640;55.838;37.184;2023-02-13T11:56:14;2.33;;;1.58;;
65533;SDS011;53640;55.838;37.184;2023-02-13T11:58:41;2.70;;;1.10;;
65533;SDS011;53640;55.838;37.184;2023-02-13T12:06:41;1.63;;;1.35;;
65533;SDS011;53640;55.838;37.184;2023-02-13T12:11:50;4.78;;;1.20;;
65533;SDS011;53640;55.838;37.184;2023-02-13T12:14:20;5.03;;;1.83;;
65533;SDS011;53640;55.838;37.184;2023-02-13T12:19:34;2.65;;;1.50;;
65533;SDS011;53640;55.838;37.184;2023-02-13T12:22:28;6.00;;;1.42;;
65533;SDS011;53640;55.838;37.184;2023-02-13T12:25:10;2.83;;;1.40;;
65533;SDS011;53640;55.838;37.184;2023-02-13T12:27:55;8.98;;;2.58;;
65533;SDS011;53640;55.838;37.184;2023-02-13T12:30:40;1.35;;;1.15;;
65533;SDS011;53640;55.838;37.184;2023-02-13T12:44:41;1.77;;;1.00;;
65533;SDS011;53640;55.838;37.184;2023-02-13T12:47:29;0.80;;;0.80;;
65533;SDS011;53640;55.838;37.184;2023-02-13T12:55:35;3.17;;;1.00;;
65533;SDS011;53640;55.838;37.184;2023-02-13T13:18:16;3.90;;;1.60;;
65533;SDS011;53640;55.838;37.184;2023-02-13T13:29:09;1.42;;;1.10;;
65533;SDS011;53640;55.838;37.184;2023-02-13T13:31:43;1.80;;;1.48;;
65533;SDS011;53640;55.838;37.184;2023-02-13T13:34:22;4.57;;;1.70;;
65533;SDS011;53640;55.838;37.184;2023-02-13T13:36:59;3.20;;;1.50;;
65533;SDS011;53640;55.838;37.184;2023-02-13T13:42:39;2.78;;;2.08;;
65533;SDS011;53640;55.838;37.184;2023-02-13T13:50:42;2.50;;;1.60;;
65533;SDS011;53640;55.838;37.184;2023-02-13T13:53:12;4.38;;;1.67;;
65533;SDS011;53640;55.838;37.184;2023-02-13T13:58:35;6.05;;;2.53;;
65533;SDS011;53640;55.838;37.184;2023-02-13T14:01:44;5.28;;;2.13;;
65533;SDS011;53640;55.838;37.184;2023-02-13T14:04:02;5.97;;;2.60;;
65533;SDS011;53640;55.838;37.184;2023-02-13T14:11:56;5.38;;;2.70;;
65533;SDS011;53640;55.838;37.184;2023-02-13T14:14:45;5.82;;;2.60;;
65533;SDS011;53640;55.838;37.184;2023-02-13T14:17:12;2.63;;;1.85;;
65533;SDS011;53640;55.838;37.184;2023-02-13T14:19:41;5.90;;;2.20;;
65533;SDS011;53640;55.838;37.184;2023-02-13T14:24:53;3.20;;;1.30;;
65533;SDS011;53640;55.838;37.184;2023-02-13T14:27:28;2.22;;;1.42;;
65533;SDS011;53640;55.838;37.184;2023-02-13T14:30:02;2.22;;;1.48;;
65533;SDS011;53640;55.838;37.184;2023-02-13T14:32:36;2.55;;;1.58;;
65533;SDS011;53640;55.838;37.184;2023-02-13T14:35:17;1.80;;;1.20;;
65533;SDS011;53640;55.838;37.184;2023-02-13T14:38:03;3.22;;;1.73;;
65533;SDS011;53640;55.838;37.184;2023-02-13T14:40:47;1.80;;;1.23;;
65533;SDS011;53640;55.838;37.184;2023-02-13T14:43:28;3.00;;;1.50;;
65533;SDS011;53640;55.838;37.184;2023-02-13T14:48:35;5.93;;;1.77;;
65533;SDS011;53640;55.838;37.184;2023-02-13T14:51:11;2.55;;;1.48;;
65533;SDS011;53640;55.838;37.184;2023-02-13T14:53:50;4.32;;;1.98;;
65533;SDS011;53640;55.838;37.184;2023-02-13T14:56:28;3.35;;;2.15;;
65533;SDS011;53640;55.838;37.184;2023-02-13T14:59:09;2.13;;;1.50;;
65533;SDS011;53640;55.838;37.184;2023-02-13T15:01:44;1.70;;;1.55;;
65533;SDS011;53640;55.838;37.184;2023-02-13T15:04:18;2.00;;;1.77;;
65533;SDS011;53640;55.838;37.184;2023-02-13T15:06:51;1.52;;;1.42;;
65533;SDS011;53640;55.838;37.184;2023-02-13T15:09:30;3.38;;;1.50;;
65533;SDS011;53640;55.838;37.184;2023-02-13T15:11:58;2.65;;;1.63;;
65533;SDS011;53640;55.838;37.184;2023-02-13T15:17:09;4.43;;;2.15;;
65533;SDS011;53640;55.838;37.184;2023-02-13T15:19:37;3.05;;;1.60;;
65533;SDS011;53640;55.838;37.184;2023-02-13T15:22:17;3.58;;;2.05;;
65533;SDS011;53640;55.838;37.184;2023-02-13T15:24:46;2.38;;;2.05;;
65533;SDS011;53640;55.838;37.184;2023-02-13T15:27:18;2.20;;;1.73;;
65533;SDS011;53640;55.838;37.184;2023-02-13T15:29:54;3.38;;;1.63;;
65533;SDS011;53640;55.838;37.184;2023-02-13T15:32:33;2.72;;;2.15;;
65533;SDS011;53640;55.838;37.184;2023-02-13T15:37:40;1.92;;;1.77;;
65533;SDS011;53640;55.838;37.184;2023-02-13T15:40:14;2.05;;;1.83;;
65533;SDS011;53640;55.838;37.184;2023-02-13T15:42:47;3.00;;;1.83;;
65533;SDS011;53640;55.838;37.184;2023-02-13T15:45:16;2.45;;;2.00;;
65533;SDS011;53640;55.838;37.184;2023-02-13T15:47:45;3.90;;;2.08;;
65533;SDS011;53640;55.838;37.184;2023-02-13T15:52:56;4.18;;;2.00;;
65533;SDS011;53640;55.838;37.184;2023-02-13T15:55:26;3.17;;;2.20;;
65533;SDS011;53640;55.838;37.184;2023-02-13T15:57:59;3.00;;;2.03;;
65533;SDS011;53640;55.838;37.184;2023-02-13T16:00:30;2.88;;;2.10;;
65533;SDS011;53640;55.838;37.184;2023-02-13T16:02:59;5.70;;;2.88;;
65533;SDS011;53640;55.838;37.184;2023-02-13T16:05:29;5.07;;;3.15;;
65533;SDS011;53640;55.838;37.184;2023-02-13T16:07:59;6.90;;;3.35;;
65533;SDS011;53640;55.838;37.184;2023-02-13T16:10:30;4.90;;;3.05;;
65533;SDS011;53640;55.838;37.184;2023-02-13T16:13:04;6.93;;;3.33;;
65533;SDS011;53640;55.838;37.184;2023-02-13T16:15:34;5.25;;;2.10;;
65533;SDS011;53640;55.838;37.184;2023-02-13T16:18:03;4.05;;;2.05;;
65533;SDS011;53640;55.838;37.184;2023-02-13T16:20:36;4.25;;;2.33;;
65533;SDS011;53640;55.838;37.184;2023-02-13T16:23:07;2.92;;;2.38;;
65533;SDS011;53640;55.838;37.184;2023-02-13T16:25:44;4.05;;;2.50;;
65533;SDS011;53640;55.838;37.184;2023-02-13T16:28:17;4.80;;;2.78;;
65533;SDS011;53640;55.838;37.184;2023-02-13T16:33:44;5.70;;;2.58;;
65533;SDS011;53640;55.838;37.184;2023-02-13T16:38:39;4.97;;;2.67;;
65533;SDS011;53640;55.838;37.184;2023-02-13T16:43:50;3.20;;;2.17;;
65533;SDS011;53640;55.838;37.184;2023-02-13T16:53:58;6.85;;;2.80;;
65533;SDS011;53640;55.838;37.184;2023-02-13T16:56:27;3.05;;;2.45;;
65533;SDS011;53640;55.838;37.184;2023-02-13T17:04:53;7.07;;;2.78;;
65533;SDS011;53640;55.838;37.184;2023-02-13T17:07:29;7.95;;;3.00;;
65533;SDS011;53640;55.838;37.184;2023-02-13T17:10:00;4.25;;;2.75;;
65533;SDS011;53640;55.838;37.184;2023-02-13T17:12:35;8.43;;;3.22;;
65533;SDS011;53640;55.838;37.184;2023-02-13T17:15:06;3.22;;;2.50;;
65533;SDS011;53640;55.838;37.184;2023-02-13T17:17:37;4.18;;;2.38;;
65533;SDS011;53640;55.838;37.184;2023-02-13T17:20:05;4.43;;;2.80;;
65533;SDS011;53640;55.838;37.184;2023-02-13T17:22:37;4.90;;;2.38;;
65533;SDS011;53640;55.838;37.184;2023-02-13T17:25:08;3.13;;;2.40;;
65533;SDS011;53640;55.838;37.184;2023-02-13T17:27:46;5.07;;;2.42;;
65533;SDS011;53640;55.838;37.184;2023-02-13T17:30:18;4.70;;;2.47;;
65533;SDS011;53640;55.838;37.184;2023-02-13T17:32:51;9.38;;;3.17;;
65533;SDS011;53640;55.838;37.184;2023-02-13T17:35:26;6.45;;;2.85;;
65533;SDS011;53640;55.838;37.184;2023-02-13T17:37:53;5.22;;;2.65;;
65533;SDS011;53640;55.838;37.184;2023-02-13T17:40:20;5.38;;;2.92;;
65533;SDS011;53640;55.838;37.184;2023-02-13T17:42:50;5.45;;;3.03;;
65533;SDS011;53640;55.838;37.184;2023-02-13T17:45:23;6.18;;;2.60;;
65533;SDS011;53640;55.838;37.184;2023-02-13T17:47:51;7.28;;;2.47;;
65533;SDS011;53640;55.838;37.184;2023-02-13T17:50:20;5.15;;;2.70;;
65533;SDS011;53640;55.838;37.184;2023-02-13T17:52:49;2.50;;;2.30;;
65533;SDS011;53640;55.838;37.184;2023-02-13T17:55:20;5.90;;;3.10;;
65533;SDS011;53640;55.838;37.184;2023-02-13T18:01:04;5.03;;;2.88;;
65533;SDS011;53640;55.838;37.184;2023-02-13T18:03:52;3.67;;;2.25;;
65533;SDS011;53640;55.838;37.184;2023-02-13T18:09:30;4.68;;;2.50;;
65533;SDS011;53640;55.838;37.184;2023-02-13T18:12:22;4.38;;;2.40;;
65533;SDS011;53640;55.838;37.184;2023-02-13T18:15:10;3.83;;;2.00;;
65533;SDS011;53640;55.838;37.184;2023-02-13T18:18:08;3.42;;;1.98;;
65533;SDS011;53640;55.838;37.184;2023-02-13T18:24:28;1.90;;;1.80;;
65533;SDS011;53640;55.838;37.184;2023-02-13T18:26:56;2.15;;;1.35;;
65533;SDS011;53640;55.838;37.184;2023-02-13T18:29:29;1.50;;;1.40;;
65533;SDS011;53640;55.838;37.184;2023-02-13T18:32:05;2.17;;;1.50;;